KSYR/SYR METAR and TAF weather

Enter ICAO airport designator
Station Type Date Time Source
KSYR METAR 2020/02/19 14:41 UTC NOAA

KSYR 191441Z 29009KT 1SM R28/4000VP6000FT -SN BLSN BKN015 OVC020 M02/M06 A3029 RMK AO2 P0000 T10171056


Station Type Date Time Source
KSYR Decoded METAR 2020/02/19 14:41 UTC NOAA

SYRACUSE HANCOCK INTERNATIONAL AIRPORT , NY, United States (KSYR) 43-07N 76-06W 127M
Feb 19, 2020 - 09:41 AM EST / 2020.02.19 1441 UTC
Wind: from the WNW (290 degrees) at 10 MPH (9 KT):0
Visibility: 1 mile(s):0
Sky conditions: overcast
Weather: light snow; blowing snow
Precipitation last hour: A trace
Temperature: 28.9 F (-1.7 C)
Windchill: 19 F (-7 C):1
Dew Point: 21.9 F (-5.6 C)
Relative Humidity: 74%
Pressure (altimeter): 30.29 in. Hg (1025 hPa)
ob: KSYR 191441Z 29009KT 1SM R28/4000VP6000FT -SN BLSN BKN015 OVC020 M02/M06 A3029 RMK AO2 P0000 T10171056
cycle: 14

Station Type Date Time Source
KSYR TAF 2020/02/19 12:42 UTC NOAA

TAF KSYR 191140Z 1912/2012 28016KT 5SM -SHSN BR OVC030
TEMPO 1912/1914 2SM -SHSN BR FEW012 SCT018 OVC022
FM191500 30015G24KT P6SM FEW030 SCT045 BKN060
FM200100 29011G19KT 4SM -SHSN SCT025 BKN040
FM200400 29010KT 2SM -SN BR FEW010 BKN018
FM200700 28009KT 3/4SM -SN BR VV011

Example: see airport list